Terminal Aerodrome Forecast
Issued by NWS

Current Version | Previous Version | Text Only | Print | Product List | Glossary On
Versions: 1 2 3 4 5 6 7 8 9 10 11 12 13 14
000
FTUS45 KCYS 292320
TAFLAR
TAF
KLAR 292320Z 3000/3024 36012KT P6SM VCSH OVC100
     FM300400 23008KT P6SM VCSH OVC100
     FM301800 28012G18KT P6SM BKN050=

USA.gov is the U.S. government's official web portal to all federal, state and local government web resources and services.